createdAt,value
2017-12-17T00:00:54.469Z,4.50
2017-12-17T00:03:23.960Z,4.50
2017-12-17T00:05:52.558Z,4.40
2017-12-17T00:08:21.157Z,4.40
2017-12-17T00:10:50.543Z,4.40
2017-12-17T00:13:19.127Z,4.30
2017-12-17T00:15:48.522Z,4.50
2017-12-17T00:18:17.091Z,4.40
2017-12-17T00:20:45.721Z,4.40
2017-12-17T00:23:15.102Z,4.10
2017-12-17T00:25:43.710Z,4.10
2017-12-17T00:28:12.331Z,4.10
2017-12-17T00:30:40.931Z,4.20
2017-12-17T00:33:10.487Z,4.30
2017-12-17T00:35:39.095Z,4.30
2017-12-17T00:38:07.710Z,4.50
2017-12-17T00:40:36.331Z,4.50
2017-12-17T00:43:05.022Z,4.40
2017-12-17T00:45:33.647Z,4.40
2017-12-17T00:48:02.238Z,4.50
2017-12-17T00:50:30.833Z,4.30
2017-12-17T00:52:59.446Z,4.20
2017-12-17T00:55:28.154Z,4.20
2017-12-17T00:57:56.762Z,4.30
2017-12-17T01:00:25.739Z,4.20
2017-12-17T01:02:54.327Z,4.20
2017-12-17T01:05:22.922Z,4.20
2017-12-17T01:07:52.313Z,4.20
2017-12-17T01:10:20.944Z,4.20
2017-12-17T01:12:49.919Z,4.20
2017-12-17T01:15:19.271Z,4.30
2017-12-17T01:17:47.878Z,4.20
2017-12-17T01:20:17.286Z,4.40
2017-12-17T01:22:46.732Z,4.30
2017-12-17T01:25:16.091Z,4.20
2017-12-17T01:27:45.463Z,4.20
2017-12-17T01:30:14.075Z,4.10
2017-12-17T01:32:42.690Z,4.20
2017-12-17T01:35:11.328Z,4.10
2017-12-17T01:37:40.720Z,4.40
2017-12-17T01:40:10.071Z,4.40
2017-12-17T01:45:14.043Z,4.30
2017-12-17T01:47:42.627Z,4.20
2017-12-17T01:50:11.988Z,4.30
2017-12-17T01:52:40.700Z,4.30
2017-12-17T01:55:09.784Z,4.40
2017-12-17T01:57:38.409Z,4.40
2017-12-17T02:00:07.023Z,4.40
2017-12-17T02:02:35.641Z,4.30
2017-12-17T02:05:04.278Z,4.20
2017-12-17T02:07:33.644Z,4.20
2017-12-17T02:10:03.118Z,4.20
2017-12-17T02:12:31.710Z,4.20
2017-12-17T02:15:00.319Z,4.20
2017-12-17T02:17:29.693Z,4.30
2017-12-17T02:19:58.319Z,4.30
2017-12-17T02:22:27.682Z,4.30
2017-12-17T02:24:56.293Z,4.20
2017-12-17T02:27:25.675Z,4.30
2017-12-17T02:29:54.290Z,4.30
2017-12-17T02:32:23.643Z,4.30
2017-12-17T02:34:52.576Z,4.20
2017-12-17T02:37:21.166Z,4.30
2017-12-17T02:39:50.542Z,4.40
2017-12-17T02:42:19.152Z,4.30
2017-12-17T02:44:48.561Z,4.50
2017-12-17T02:47:17.927Z,4.70
2017-12-17T02:49:46.544Z,4.70
2017-12-17T02:52:15.927Z,4.80
2017-12-17T02:54:44.516Z,4.80
2017-12-17T02:57:13.921Z,4.50
2017-12-17T02:59:42.522Z,4.40
2017-12-17T03:02:11.295Z,4.40
2017-12-17T03:04:40.667Z,4.30
2017-12-17T03:07:09.278Z,4.20
2017-12-17T03:09:37.859Z,4.20
2017-12-17T03:12:07.243Z,4.20
2017-12-17T03:14:35.842Z,4.20
2017-12-17T03:17:05.218Z,4.20
2017-12-17T03:19:33.839Z,4.20
2017-12-17T03:22:03.207Z,4.40
2017-12-17T03:24:31.820Z,4.40
2017-12-17T03:27:01.201Z,4.30
2017-12-17T03:29:29.800Z,4.20
2017-12-17T03:31:59.168Z,4.40
2017-12-17T03:34:27.754Z,4.30
2017-12-17T03:36:56.382Z,4.30
2017-12-17T03:39:25.754Z,4.30
2017-12-17T03:41:54.342Z,4.20
2017-12-17T03:44:23.006Z,4.20
2017-12-17T03:46:51.597Z,4.20
2017-12-17T03:49:20.194Z,4.20
2017-12-17T03:51:48.812Z,4.30
2017-12-17T03:54:18.178Z,4.50
2017-12-17T03:56:46.785Z,4.50
2017-12-17T03:59:15.399Z,4.40
2017-12-17T04:01:44.762Z,4.30
2017-12-17T04:04:13.367Z,4.30
2017-12-17T04:06:42.761Z,4.50
2017-12-17T04:09:12.142Z,4.60
2017-12-17T04:11:40.765Z,4.60
2017-12-17T04:14:10.120Z,4.50
2017-12-17T04:16:38.802Z,4.50
2017-12-17T04:19:07.321Z,4.60
2017-12-17T04:21:36.716Z,4.80
2017-12-17T04:24:05.299Z,4.70
2017-12-17T04:26:34.702Z,4.60
2017-12-17T04:29:03.311Z,4.60
2017-12-17T04:31:31.926Z,4.50
2017-12-17T04:34:00.518Z,4.50
2017-12-17T04:36:29.973Z,4.70
2017-12-17T04:38:58.562Z,4.60
2017-12-17T04:41:27.276Z,4.70
2017-12-17T04:43:55.858Z,4.60
2017-12-17T04:46:24.466Z,4.60
2017-12-17T04:48:53.076Z,4.50
2017-12-17T04:51:21.675Z,4.40
2017-12-17T04:53:50.305Z,4.40
2017-12-17T04:56:19.801Z,4.40
2017-12-17T04:58:48.395Z,4.40
2017-12-17T05:01:17.755Z,4.30
2017-12-17T05:03:46.433Z,4.30
2017-12-17T05:06:15.014Z,4.10
2017-12-17T05:08:43.632Z,4.20
2017-12-17T05:11:13.404Z,4.20
2017-12-17T05:13:42.030Z,4.20
2017-12-17T05:16:11.414Z,4.20
2017-12-17T05:18:40.046Z,4.10
2017-12-17T05:21:08.662Z,4.20
2017-12-17T05:23:37.259Z,4.30
2017-12-17T05:26:05.878Z,4.30
2017-12-17T05:28:34.906Z,4.50
2017-12-17T05:31:03.533Z,4.70
2017-12-17T05:33:32.131Z,4.80
2017-12-17T05:36:00.783Z,4.80
2017-12-17T05:38:29.365Z,4.70
2017-12-17T05:40:57.963Z,4.60
2017-12-17T05:43:27.331Z,4.30
2017-12-17T05:45:55.936Z,4.30
2017-12-17T05:48:24.529Z,4.30
2017-12-17T05:50:53.266Z,4.20
2017-12-17T05:53:21.870Z,4.30
2017-12-17T05:55:50.486Z,4.30
2017-12-17T05:58:19.903Z,4.50
2017-12-17T06:00:48.528Z,4.40
2017-12-17T06:03:17.144Z,4.70
2017-12-17T06:05:45.750Z,4.70
2017-12-17T06:08:14.392Z,4.60
2017-12-17T06:10:43.039Z,4.60
2017-12-17T06:13:11.667Z,4.70
2017-12-17T06:15:40.264Z,4.80
2017-12-17T06:18:08.870Z,4.70
2017-12-17T06:20:38.283Z,4.50
2017-12-17T06:23:07.650Z,4.60
2017-12-17T06:25:36.263Z,4.60
2017-12-17T06:28:05.638Z,4.80
2017-12-17T06:30:34.239Z,4.80
2017-12-17T06:33:03.622Z,4.80
2017-12-17T06:35:32.217Z,4.80
2017-12-17T06:38:01.610Z,4.70
2017-12-17T06:40:30.231Z,4.70
2017-12-17T06:42:58.822Z,4.60
2017-12-17T06:45:27.431Z,4.60
2017-12-17T06:47:56.067Z,4.60
2017-12-17T06:50:26.958Z,4.70
2017-12-17T06:52:55.578Z,4.60
2017-12-17T06:55:24.990Z,4.60
2017-12-17T06:57:53.607Z,4.60
2017-12-17T07:00:22.224Z,4.60
2017-12-17T07:02:50.815Z,4.70
2017-12-17T07:05:20.227Z,4.40
2017-12-17T07:10:30.776Z,4.50
2017-12-17T07:12:59.379Z,4.50
2017-12-17T07:15:27.975Z,4.30
2017-12-17T07:17:57.341Z,4.40
2017-12-17T07:20:26.181Z,4.30
2017-12-17T07:22:55.554Z,4.00
2017-12-17T07:25:25.020Z,3.80
2017-12-17T07:27:53.817Z,3.70
2017-12-17T07:30:22.437Z,3.80
2017-12-17T07:32:51.882Z,4.00
2017-12-17T07:35:21.219Z,4.00
2017-12-17T07:37:49.839Z,4.00
2017-12-17T07:40:18.450Z,3.90
2017-12-17T07:42:47.799Z,4.20
2017-12-17T07:45:16.429Z,4.10
2017-12-17T07:47:44.998Z,4.30
2017-12-17T07:50:15.101Z,4.30
2017-12-17T07:52:43.725Z,4.30
2017-12-17T07:55:13.470Z,4.20
2017-12-17T07:57:42.075Z,4.10
2017-12-17T08:00:10.698Z,4.30
2017-12-17T08:02:39.743Z,4.30
2017-12-17T08:05:08.378Z,4.50
2017-12-17T08:07:36.995Z,4.60
2017-12-17T08:10:05.614Z,4.60
2017-12-17T08:12:34.214Z,4.70
2017-12-17T08:15:03.969Z,4.90
2017-12-17T08:17:34.163Z,4.90
2017-12-17T08:20:02.757Z,4.90
2017-12-17T08:22:31.358Z,4.90
2017-12-17T08:25:00.908Z,5.00
2017-12-17T08:27:29.604Z,4.80
2017-12-17T08:29:58.186Z,4.60
2017-12-17T08:32:26.779Z,4.50
2017-12-17T08:34:56.147Z,4.40
2017-12-17T08:37:24.765Z,4.30
2017-12-17T08:39:53.748Z,4.20
2017-12-17T08:42:22.365Z,4.30
2017-12-17T08:44:51.755Z,4.30
2017-12-17T08:47:21.354Z,4.20
2017-12-17T08:49:50.135Z,4.30
2017-12-17T08:52:18.707Z,4.40
2017-12-17T08:54:47.320Z,4.30
2017-12-17T08:57:16.698Z,4.20
2017-12-17T08:59:45.311Z,4.10
2017-12-17T09:02:14.675Z,4.30
2017-12-17T09:04:43.325Z,4.30
2017-12-17T09:07:13.299Z,4.20
2017-12-17T09:09:43.187Z,4.40
2017-12-17T09:12:11.785Z,4.30
2017-12-17T09:14:41.538Z,4.40
2017-12-17T09:17:10.132Z,4.40
2017-12-17T09:19:38.738Z,4.60
2017-12-17T09:22:07.359Z,4.60
2017-12-17T09:24:36.782Z,4.40
2017-12-17T09:27:05.395Z,4.40
2017-12-17T09:29:34.046Z,4.50
2017-12-17T09:32:02.626Z,4.60
2017-12-17T09:34:31.979Z,4.40
2017-12-17T09:37:00.606Z,4.30
2017-12-17T09:39:29.214Z,4.40
2017-12-17T09:41:58.727Z,4.10
2017-12-17T09:44:28.104Z,4.00
2017-12-17T09:46:57.513Z,4.10
2017-12-17T09:49:26.879Z,4.20
2017-12-17T09:51:55.508Z,4.20
2017-12-17T09:54:24.875Z,4.20
2017-12-17T09:56:53.959Z,4.20
2017-12-17T09:59:22.583Z,4.30
2017-12-17T10:01:51.944Z,4.10
2017-12-17T10:04:20.553Z,4.00
2017-12-17T10:06:49.194Z,4.10
2017-12-17T10:09:19.059Z,4.20
2017-12-17T10:11:47.683Z,4.10
2017-12-17T10:14:16.271Z,4.20
2017-12-17T10:16:44.908Z,4.30
2017-12-17T10:19:14.559Z,4.40
2017-12-17T10:21:43.185Z,4.40
2017-12-17T10:24:12.926Z,4.50
2017-12-17T10:26:42.294Z,4.50
2017-12-17T10:29:10.890Z,4.40
2017-12-17T10:31:39.528Z,4.50
2017-12-17T10:34:08.162Z,4.50
2017-12-17T10:36:37.528Z,4.40
2017-12-17T10:39:06.154Z,4.40
2017-12-17T10:41:34.749Z,4.60
2017-12-17T10:44:04.173Z,4.80
2017-12-17T10:46:33.237Z,4.80
2017-12-17T10:49:01.826Z,5.00
2017-12-17T10:51:30.431Z,4.90
2017-12-17T10:53:59.096Z,4.80
2017-12-17T10:56:27.707Z,4.70
2017-12-17T10:58:56.372Z,4.70
2017-12-17T11:01:26.259Z,4.50
2017-12-17T11:03:54.863Z,4.50
2017-12-17T11:06:23.472Z,4.50
2017-12-17T11:08:52.084Z,4.60
2017-12-17T11:11:22.009Z,4.70
2017-12-17T11:13:50.659Z,4.80
2017-12-17T11:16:20.032Z,4.90
2017-12-17T11:18:48.635Z,4.90
2017-12-17T11:21:18.018Z,5.00
2017-12-17T11:23:46.760Z,5.00
2017-12-17T11:26:15.382Z,5.00
2017-12-17T11:28:43.976Z,5.00
2017-12-17T11:31:13.573Z,5.10
2017-12-17T11:33:42.167Z,5.00
2017-12-17T11:36:11.523Z,5.20
2017-12-17T11:38:40.162Z,5.20
2017-12-17T11:41:09.575Z,5.40
2017-12-17T11:43:38.968Z,5.30
2017-12-17T11:46:08.363Z,5.10
2017-12-17T11:48:37.753Z,5.00
2017-12-17T11:51:06.353Z,4.90
2017-12-17T11:53:35.745Z,4.90
2017-12-17T11:56:04.352Z,4.90
2017-12-17T11:58:32.986Z,5.30
2017-12-17T12:01:01.616Z,5.40
2017-12-17T12:03:30.277Z,5.80
2017-12-17T12:05:58.881Z,5.90
2017-12-17T12:08:27.500Z,5.90
2017-12-17T12:10:56.125Z,5.80
2017-12-17T12:13:24.773Z,5.70
2017-12-17T12:15:53.403Z,5.70
2017-12-17T12:18:22.839Z,5.80
2017-12-17T12:20:51.479Z,5.80
2017-12-17T12:23:20.096Z,6.20
2017-12-17T12:25:48.761Z,6.20
2017-12-17T12:28:17.344Z,6.20
2017-12-17T12:30:46.715Z,5.70
2017-12-17T12:33:16.062Z,5.60
2017-12-17T12:35:45.456Z,5.70
2017-12-17T12:38:14.097Z,5.60
2017-12-17T12:40:42.739Z,5.50
2017-12-17T12:43:11.349Z,5.40
2017-12-17T12:45:39.947Z,5.30
2017-12-17T12:48:08.569Z,5.10
2017-12-17T12:50:37.968Z,5.00
2017-12-17T12:53:07.443Z,5.10
2017-12-17T12:55:36.674Z,5.00
2017-12-17T12:58:05.329Z,5.20
2017-12-17T13:00:33.934Z,5.20
2017-12-17T13:03:02.550Z,5.00
2017-12-17T13:05:31.159Z,4.80
2017-12-17T13:07:59.779Z,4.70
2017-12-17T13:10:28.438Z,4.80
2017-12-17T13:12:57.041Z,4.80
2017-12-17T13:15:25.691Z,4.70
2017-12-17T13:17:54.330Z,4.70
2017-12-17T13:20:23.678Z,4.80
2017-12-17T13:22:52.789Z,4.70
2017-12-17T13:25:22.287Z,4.80
2017-12-17T13:27:50.882Z,4.90
2017-12-17T13:30:19.495Z,5.10
2017-12-17T13:32:48.883Z,4.90
2017-12-17T13:35:18.247Z,5.00
2017-12-17T13:37:46.854Z,5.00
2017-12-17T13:40:16.684Z,5.10
2017-12-17T13:42:45.283Z,5.20
2017-12-17T13:45:14.842Z,5.30
2017-12-17T13:47:43.460Z,5.30
2017-12-17T13:50:12.091Z,5.20
2017-12-17T13:52:40.805Z,5.20
2017-12-17T13:55:09.488Z,5.20
2017-12-17T13:57:38.200Z,5.10
2017-12-17T14:00:07.725Z,5.00
2017-12-17T14:02:37.336Z,4.90
2017-12-17T14:05:07.143Z,4.90
2017-12-17T14:07:35.770Z,4.90
2017-12-17T14:10:04.377Z,4.60
2017-12-17T14:12:34.110Z,4.40
2017-12-17T14:15:02.688Z,4.30
2017-12-17T14:17:32.088Z,4.30
2017-12-17T14:20:01.499Z,4.40
2017-12-17T14:22:30.900Z,4.40
2017-12-17T14:25:00.331Z,4.50
2017-12-17T14:27:29.687Z,4.50
2017-12-17T14:29:58.329Z,4.40
2017-12-17T14:32:26.922Z,4.60
2017-12-17T14:34:56.518Z,4.60
2017-12-17T14:37:25.148Z,4.50
2017-12-17T14:39:54.551Z,4.60
2017-12-17T14:42:23.289Z,4.60
2017-12-17T14:44:53.062Z,4.70
2017-12-17T14:47:22.752Z,4.50
2017-12-17T14:49:51.552Z,4.40
2017-12-17T14:52:21.180Z,4.50
2017-12-17T14:54:50.043Z,4.50
2017-12-17T14:57:20.603Z,4.70
2017-12-17T14:59:49.474Z,4.70
2017-12-17T15:02:19.062Z,4.50
2017-12-17T15:04:48.701Z,4.50
2017-12-17T15:07:17.552Z,4.50
2017-12-17T15:09:46.398Z,4.40
2017-12-17T15:12:15.284Z,4.20
2017-12-17T15:14:44.197Z,4.40
2017-12-17T15:17:13.066Z,4.40
2017-12-17T15:19:42.276Z,4.40
2017-12-17T15:22:11.147Z,4.40
2017-12-17T15:24:40.014Z,4.30
2017-12-17T15:27:09.652Z,4.50
2017-12-17T15:29:38.507Z,4.50
2017-12-17T15:32:07.365Z,4.60
2017-12-17T15:34:36.261Z,4.60
2017-12-17T15:37:05.887Z,4.50
2017-12-17T15:39:34.729Z,4.50
2017-12-17T15:42:03.610Z,4.50
2017-12-17T15:44:32.495Z,4.50
2017-12-17T15:47:02.137Z,4.40
2017-12-17T15:49:30.987Z,4.40
2017-12-17T15:51:59.819Z,4.20
2017-12-17T15:54:28.732Z,4.00
2017-12-17T15:56:58.372Z,4.10
2017-12-17T15:59:28.153Z,4.10
2017-12-17T16:01:57.795Z,4.50
2017-12-17T16:04:26.643Z,4.50
2017-12-17T16:06:56.270Z,4.50
2017-12-17T16:09:25.918Z,4.60
2017-12-17T16:11:54.760Z,4.60
2017-12-17T16:14:23.640Z,4.70
2017-12-17T16:16:52.510Z,4.60
2017-12-17T16:19:21.988Z,4.70
2017-12-17T16:21:50.809Z,4.80
2017-12-17T16:24:19.678Z,4.70
2017-12-17T16:26:48.538Z,4.70
2017-12-17T16:29:18.251Z,4.70
2017-12-17T16:31:47.666Z,4.80
2017-12-17T16:34:16.531Z,4.80
2017-12-17T16:36:46.058Z,4.60
2017-12-17T16:39:14.915Z,4.60
2017-12-17T16:41:46.091Z,4.50
2017-12-17T16:44:15.723Z,4.40
2017-12-17T16:46:44.598Z,4.40
2017-12-17T16:49:13.525Z,4.40
2017-12-17T16:51:42.403Z,4.40
2017-12-17T16:54:11.621Z,4.40
2017-12-17T16:56:40.469Z,4.30
2017-12-17T16:59:10.071Z,4.30
2017-12-17T17:01:39.673Z,4.30
2017-12-17T17:04:09.384Z,4.40
2017-12-17T17:06:39.047Z,4.60
2017-12-17T17:09:07.941Z,4.50
2017-12-17T17:11:36.778Z,4.50
2017-12-17T17:14:06.409Z,4.50
2017-12-17T17:16:35.302Z,4.40
2017-12-17T17:19:04.184Z,4.60
2017-12-17T17:21:33.037Z,4.60
2017-12-17T17:24:02.811Z,4.60
2017-12-17T17:26:31.675Z,4.50
2017-12-17T17:42:00.554Z,4.30
2017-12-17T17:44:30.198Z,4.40
2017-12-17T17:46:59.058Z,4.30
2017-12-17T17:49:28.690Z,4.40
2017-12-17T17:51:58.717Z,4.40
2017-12-17T17:54:28.382Z,4.40
2017-12-17T17:56:57.863Z,4.50
2017-12-17T17:59:28.303Z,4.70
2017-12-17T18:01:57.143Z,4.70
2017-12-17T18:04:25.993Z,4.70
2017-12-17T18:06:55.697Z,4.80
2017-12-17T18:09:24.520Z,4.80
2017-12-17T18:11:54.524Z,4.90
2017-12-17T18:14:24.241Z,4.80
2017-12-17T18:16:53.087Z,4.70
2017-12-17T18:19:22.014Z,4.80
2017-12-17T18:21:51.638Z,4.60
2017-12-17T18:24:20.506Z,4.60
2017-12-17T18:26:50.299Z,4.60
2017-12-17T18:29:19.722Z,4.60
2017-12-17T18:31:50.208Z,4.50
2017-12-17T18:34:19.999Z,4.60
2017-12-17T18:36:48.842Z,4.50
2017-12-17T18:39:20.376Z,4.60
2017-12-17T18:41:49.484Z,4.50
2017-12-17T18:44:18.658Z,4.70
2017-12-17T18:46:47.843Z,4.60
2017-12-17T18:49:17.691Z,4.70
2017-12-17T18:51:46.771Z,4.70
2017-12-17T18:54:15.674Z,4.80
2017-12-17T18:56:44.803Z,4.70
2017-12-17T18:59:14.012Z,4.70
2017-12-17T19:01:44.874Z,4.40
2017-12-17T19:04:13.748Z,4.40
2017-12-17T19:06:42.896Z,4.40
2017-12-17T19:09:13.042Z,4.50
2017-12-17T19:11:42.239Z,4.70
2017-12-17T19:14:11.439Z,4.70
2017-12-17T19:16:42.285Z,4.60
2017-12-17T19:19:12.257Z,4.60
2017-12-17T19:21:41.445Z,4.70
2017-12-17T19:24:10.321Z,4.80
2017-12-17T19:26:39.962Z,4.60
2017-12-17T19:29:09.081Z,4.60
2017-12-17T19:31:37.981Z,4.60
2017-12-17T19:34:07.173Z,4.70
2017-12-17T19:36:36.466Z,4.70
2017-12-17T19:39:05.368Z,4.80
2017-12-17T19:41:34.568Z,4.70
2017-12-17T19:44:04.572Z,4.70
2017-12-17T19:46:33.476Z,4.60
2017-12-17T19:49:02.608Z,4.50
2017-12-17T19:51:32.246Z,4.40
2017-12-17T19:54:02.231Z,4.40
2017-12-17T19:56:31.862Z,4.50
2017-12-17T19:59:01.731Z,4.70
2017-12-17T20:01:31.877Z,4.70
2017-12-17T20:04:00.742Z,4.70
2017-12-17T20:06:29.635Z,4.70
2017-12-17T20:08:58.862Z,4.70
2017-12-17T20:11:30.301Z,4.60
2017-12-17T20:14:00.391Z,4.60
2017-12-17T20:16:30.191Z,4.40
2017-12-17T20:19:00.147Z,4.60
2017-12-17T20:21:29.014Z,4.60
2017-12-17T20:23:57.927Z,4.70
2017-12-17T20:26:27.090Z,4.80
2017-12-17T20:28:56.012Z,4.80
2017-12-17T20:31:24.935Z,4.70
2017-12-17T20:33:55.021Z,4.50
2017-12-17T20:36:24.218Z,4.50
2017-12-17T20:38:53.182Z,4.50
2017-12-17T20:41:22.040Z,4.60
2017-12-17T20:43:51.710Z,4.50
2017-12-17T20:46:21.350Z,4.70
2017-12-17T20:48:50.210Z,4.70
2017-12-17T20:51:20.202Z,4.70
2017-12-17T20:53:50.956Z,4.70
2017-12-17T20:56:20.621Z,4.90
2017-12-17T20:58:49.486Z,4.80
2017-12-17T21:01:18.357Z,4.90
2017-12-17T21:03:48.241Z,4.70
2017-12-17T21:06:18.112Z,4.70
2017-12-17T21:08:47.350Z,4.70
2017-12-17T21:11:16.240Z,4.80
2017-12-17T21:13:45.284Z,4.80
2017-12-17T21:16:15.068Z,4.80
2017-12-17T21:18:44.009Z,4.70
2017-12-17T21:21:13.023Z,4.90
2017-12-17T21:23:41.839Z,4.90
2017-12-17T21:26:10.717Z,4.80
2017-12-17T21:28:39.575Z,4.70
2017-12-17T21:31:08.443Z,4.70
2017-12-17T21:33:37.299Z,4.80
2017-12-17T21:36:06.938Z,4.80
2017-12-17T21:38:35.783Z,4.70
2017-12-17T21:41:04.736Z,4.80
2017-12-17T21:43:33.618Z,5.00
2017-12-17T21:46:06.947Z,4.90
2017-12-17T21:48:36.556Z,4.90
2017-12-17T21:51:05.567Z,4.80
2017-12-17T21:53:34.447Z,4.70
2017-12-17T21:56:03.311Z,4.80
2017-12-17T21:58:32.186Z,4.70
2017-12-17T22:03:36.445Z,4.60
2017-12-17T22:06:05.295Z,4.70
2017-12-17T22:08:34.148Z,4.60
2017-12-17T22:11:03.014Z,4.50
2017-12-17T22:13:31.874Z,4.40
2017-12-17T22:16:01.506Z,4.50
2017-12-17T22:18:31.123Z,4.60
2017-12-17T22:20:59.978Z,4.60
2017-12-17T22:23:29.593Z,4.60
2017-12-17T22:25:59.216Z,4.60
2017-12-17T22:28:28.073Z,4.60
2017-12-17T22:30:57.689Z,4.60
2017-12-17T22:33:27.361Z,4.50
2017-12-17T22:35:56.935Z,4.40
2017-12-17T22:38:25.778Z,4.40
2017-12-17T22:40:54.639Z,4.50
2017-12-17T22:43:23.496Z,4.40
2017-12-17T22:45:52.336Z,4.50
2017-12-17T22:48:21.176Z,4.50
2017-12-17T22:50:50.035Z,4.50
2017-12-17T22:53:18.867Z,4.60
2017-12-17T22:55:47.777Z,4.60
2017-12-17T22:58:17.315Z,4.60
2017-12-17T23:00:46.930Z,4.50
2017-12-17T23:03:16.564Z,4.50
2017-12-17T23:05:45.396Z,4.50
2017-12-17T23:08:14.214Z,4.60
2017-12-17T23:10:43.051Z,4.60
2017-12-17T23:13:11.909Z,4.60
2017-12-17T23:15:41.503Z,4.60
2017-12-17T23:18:11.135Z,4.60
2017-12-17T23:20:40.737Z,4.60
2017-12-17T23:23:09.580Z,4.50
2017-12-17T23:25:38.435Z,4.50
2017-12-17T23:28:07.281Z,4.50
2017-12-17T23:30:38.614Z,4.50
2017-12-17T23:33:07.442Z,4.50
2017-12-17T23:35:36.564Z,4.60
2017-12-17T23:38:05.413Z,4.50
2017-12-17T23:40:34.297Z,4.50
2017-12-17T23:43:03.171Z,4.60
2017-12-17T23:45:31.999Z,4.60
2017-12-17T23:48:01.604Z,4.50
2017-12-17T23:50:31.216Z,4.40
2017-12-17T23:53:00.844Z,4.10
2017-12-17T23:55:29.652Z,4.00
2017-12-17T23:57:58.506Z,3.90
